createdAt,value
2024-04-12T00:01:45.958Z,62.16
2024-04-12T00:04:18.932Z,62.68
2024-04-12T00:06:50.590Z,62.17
2024-04-12T00:09:19.779Z,60.92
2024-04-12T00:11:54.092Z,60.80
2024-04-12T00:14:23.414Z,60.39
2024-04-12T00:16:53.397Z,57.10
2024-04-12T00:19:23.746Z,55.23
2024-04-12T00:21:56.737Z,53.97
2024-04-12T00:24:25.333Z,54.52
2024-04-12T00:26:57.052Z,54.67
2024-04-12T00:29:32.040Z,57.77
2024-04-12T00:32:20.320Z,57.26
2024-04-12T00:34:49.381Z,59.70
2024-04-12T00:37:18.918Z,63.20
2024-04-12T00:39:51.884Z,64.85
2024-04-12T00:42:31.991Z,65.02
2024-04-12T00:45:00.096Z,64.98
2024-04-12T00:47:33.046Z,63.38
2024-04-12T00:50:01.915Z,62.78
2024-04-12T00:52:34.032Z,62.83
2024-04-12T00:55:05.133Z,62.02
2024-04-12T00:57:37.430Z,61.28
2024-04-12T01:00:12.455Z,60.69
2024-04-12T01:02:44.991Z,59.27
2024-04-12T01:05:20.718Z,56.05
2024-04-12T01:07:56.714Z,55.30
2024-04-12T01:10:26.629Z,55.67
2024-04-12T01:12:58.219Z,57.12
2024-04-12T01:15:37.511Z,56.77
2024-04-12T01:18:12.902Z,59.33
2024-04-12T01:20:41.507Z,60.42
2024-04-12T01:23:11.290Z,61.75
2024-04-12T01:25:39.410Z,64.60
2024-04-12T01:28:10.392Z,66.19
2024-04-12T01:30:41.002Z,66.09
2024-04-12T01:33:10.633Z,65.69
2024-04-12T01:35:39.016Z,65.19
2024-04-12T01:38:20.931Z,64.35
2024-04-12T01:41:00.292Z,62.76
2024-04-12T01:43:29.906Z,62.03
2024-04-12T01:45:58.102Z,60.69
2024-04-12T01:48:26.289Z,59.78
2024-04-12T01:50:54.653Z,58.29
2024-04-12T01:53:23.238Z,54.88
2024-04-12T01:55:51.771Z,54.47
2024-04-12T01:58:22.728Z,54.74
2024-04-12T02:00:51.230Z,54.03
2024-04-12T02:03:20.359Z,57.92
2024-04-12T02:05:50.788Z,59.46
2024-04-12T02:08:19.844Z,60.74
2024-04-12T02:10:49.635Z,59.41
2024-04-12T02:13:19.029Z,63.10
2024-04-12T02:15:49.499Z,65.08
2024-04-12T02:18:21.251Z,65.68
2024-04-12T02:20:50.631Z,65.50
2024-04-12T02:23:20.221Z,65.01
2024-04-12T02:25:51.998Z,65.08
2024-04-12T02:28:20.202Z,64.59
2024-04-12T02:30:55.941Z,63.99
2024-04-12T02:33:27.023Z,63.80
2024-04-12T02:36:18.069Z,62.83
2024-04-12T02:38:51.170Z,61.40
2024-04-12T02:41:19.119Z,59.94
2024-04-12T02:43:54.051Z,57.15
2024-04-12T02:46:24.385Z,55.06
2024-04-12T02:48:53.149Z,54.48
2024-04-12T02:51:23.737Z,54.20
2024-04-12T02:53:53.205Z,55.67
2024-04-12T02:56:25.205Z,56.33
2024-04-12T02:58:53.490Z,59.91
2024-04-12T03:01:26.017Z,60.25
2024-04-12T03:03:59.651Z,63.00
2024-04-12T03:06:36.073Z,65.86
2024-04-12T03:09:06.634Z,65.97
2024-04-12T03:11:35.191Z,65.58
2024-04-12T03:14:13.532Z,65.00
2024-04-12T03:16:43.585Z,63.71
2024-04-12T03:19:14.128Z,61.50
2024-04-12T03:21:42.213Z,61.58
2024-04-12T03:24:10.800Z,61.37
2024-04-12T03:26:39.107Z,60.31
2024-04-12T03:29:07.480Z,58.31
2024-04-12T03:31:39.575Z,55.67
2024-04-12T03:34:14.168Z,53.71
2024-04-12T03:36:46.520Z,55.51
2024-04-12T03:39:23.685Z,55.08
2024-04-12T03:42:07.369Z,56.66
2024-04-12T03:44:37.790Z,57.53
2024-04-12T03:47:12.872Z,59.43
2024-04-12T03:49:43.813Z,58.29
2024-04-12T03:52:20.655Z,59.34
2024-04-12T03:54:49.418Z,63.02
2024-04-12T03:57:18.059Z,65.47
2024-04-12T03:59:46.934Z,66.97
2024-04-12T04:02:17.139Z,66.55
2024-04-12T04:04:47.172Z,65.30
2024-04-12T04:07:17.813Z,64.52
2024-04-12T04:09:46.423Z,62.47
2024-04-12T04:12:18.432Z,61.66
2024-04-12T04:14:51.267Z,58.16
2024-04-12T04:17:30.756Z,55.42
2024-04-12T04:20:07.080Z,54.85
2024-04-12T04:22:35.321Z,55.63
2024-04-12T04:25:09.051Z,57.41
2024-04-12T04:27:38.233Z,57.52
2024-04-12T04:30:07.068Z,56.90
2024-04-12T04:32:35.502Z,57.21
2024-04-12T04:35:09.770Z,58.20
2024-04-12T04:37:38.893Z,59.55
2024-04-12T04:40:19.190Z,61.10
2024-04-12T04:42:50.531Z,60.39
2024-04-12T04:45:22.731Z,61.16
2024-04-12T04:47:51.349Z,63.27
2024-04-12T04:50:21.079Z,66.04
2024-04-12T04:52:51.350Z,66.34
2024-04-12T04:55:20.552Z,63.66
2024-04-12T04:57:55.779Z,62.13
2024-04-12T05:00:25.441Z,60.06
2024-04-12T05:02:57.016Z,57.41
2024-04-12T05:05:28.969Z,55.52
2024-04-12T05:07:58.542Z,54.85
2024-04-12T05:10:34.643Z,55.09
2024-04-12T05:13:07.224Z,55.79
2024-04-12T05:15:42.705Z,56.47
2024-04-12T05:18:14.437Z,56.39
2024-04-12T05:20:43.863Z,57.79
2024-04-12T05:23:20.298Z,57.81
2024-04-12T05:25:49.618Z,58.60
2024-04-12T05:28:20.815Z,58.50
2024-04-12T05:30:51.661Z,58.79
2024-04-12T05:33:23.650Z,59.02
2024-04-12T05:35:53.178Z,59.61
2024-04-12T05:38:25.325Z,60.64
2024-04-12T05:40:53.796Z,64.26
2024-04-12T05:43:23.006Z,67.15
2024-04-12T05:45:52.020Z,66.85
2024-04-12T05:48:23.806Z,64.84
2024-04-12T05:50:55.084Z,62.47
2024-04-12T05:53:30.904Z,60.30
2024-04-12T05:56:17.669Z,59.93
2024-04-12T05:58:45.402Z,57.13
2024-04-12T06:01:13.397Z,55.24
2024-04-12T06:03:46.432Z,55.41
2024-04-12T06:06:16.597Z,55.70
2024-04-12T06:08:46.774Z,56.10
2024-04-12T06:11:14.951Z,56.39
2024-04-12T06:13:44.883Z,56.85
2024-04-12T06:16:13.499Z,56.96
2024-04-12T06:18:41.288Z,58.78
2024-04-12T06:21:11.665Z,58.40
2024-04-12T06:23:40.932Z,59.64
2024-04-12T06:26:09.956Z,60.41
2024-04-12T06:28:42.901Z,58.67
2024-04-12T06:31:20.812Z,58.36
2024-04-12T06:33:50.410Z,59.08
2024-04-12T06:36:19.242Z,57.31
2024-04-12T06:38:47.073Z,53.51
2024-04-12T06:41:16.350Z,50.71
2024-04-12T06:43:46.231Z,49.06
2024-04-12T06:46:14.987Z,47.34
2024-04-12T06:48:43.659Z,46.52
2024-04-12T06:51:15.015Z,43.31
2024-04-12T06:53:46.795Z,44.21
2024-04-12T06:56:16.687Z,44.65
2024-04-12T06:58:47.815Z,46.59
2024-04-12T07:01:22.531Z,42.74
2024-04-12T07:03:53.825Z,44.30
2024-04-12T07:06:22.255Z,40.78
2024-04-12T07:08:53.373Z,40.67
2024-04-12T07:11:22.751Z,36.74
2024-04-12T07:13:51.753Z,35.85
2024-04-12T07:16:20.626Z,37.46
2024-04-12T07:18:48.635Z,35.26
2024-04-12T07:21:16.857Z,32.77
2024-04-12T07:23:50.677Z,33.61
2024-04-12T07:26:29.535Z,33.97
2024-04-12T07:29:00.870Z,33.65
2024-04-12T07:31:35.880Z,32.72
2024-04-12T07:34:06.448Z,35.01
2024-04-12T07:36:35.336Z,34.33
2024-04-12T07:39:10.739Z,33.92
2024-04-12T07:41:45.091Z,34.20
2024-04-12T07:44:13.496Z,33.86
2024-04-12T07:46:50.427Z,33.33
2024-04-12T07:49:18.937Z,33.83
2024-04-12T07:51:48.169Z,31.59
2024-04-12T07:54:16.926Z,32.49
2024-04-12T07:57:08.436Z,32.22
2024-04-12T07:59:38.871Z,32.50
2024-04-12T08:02:10.723Z,31.92
2024-04-12T08:04:46.975Z,33.09
2024-04-12T08:07:15.223Z,33.34
2024-04-12T08:09:46.637Z,33.86
2024-04-12T08:12:34.865Z,34.81
2024-04-12T08:15:08.593Z,35.97
2024-04-12T08:17:40.627Z,37.01
2024-04-12T08:20:16.643Z,37.17
2024-04-12T08:22:44.955Z,37.94
2024-04-12T08:25:19.560Z,38.55
2024-04-12T08:27:48.051Z,39.06
2024-04-12T08:30:20.741Z,39.79
2024-04-12T08:32:49.693Z,40.34
2024-04-12T08:35:20.915Z,40.76
2024-04-12T08:37:52.812Z,40.73
2024-04-12T08:40:26.055Z,41.07
2024-04-12T08:42:55.085Z,41.63
2024-04-12T08:45:23.302Z,41.37
2024-04-12T08:48:02.553Z,41.43
2024-04-12T08:50:35.888Z,42.14
2024-04-12T08:53:13.372Z,42.02
2024-04-12T08:55:45.637Z,42.43
2024-04-12T08:58:21.437Z,42.70
2024-04-12T09:00:49.245Z,42.77
2024-04-12T09:03:26.974Z,42.97
2024-04-12T09:05:57.651Z,43.17
2024-04-12T09:08:31.929Z,43.59
2024-04-12T09:11:04.934Z,43.47
2024-04-12T09:13:37.535Z,43.38
2024-04-12T09:16:08.642Z,43.97
2024-04-12T09:18:48.110Z,43.84
2024-04-12T09:21:37.029Z,43.94
2024-04-12T09:24:10.618Z,44.25
2024-04-12T09:26:56.842Z,43.82
2024-04-12T09:29:29.513Z,43.89
2024-04-12T09:32:16.553Z,43.73
2024-04-12T09:34:56.706Z,43.50
2024-04-12T09:37:45.779Z,43.49
2024-04-12T09:40:25.651Z,43.63
2024-04-12T09:42:56.961Z,43.89
2024-04-12T09:45:46.367Z,43.43
2024-04-12T09:48:33.052Z,42.89
2024-04-12T09:51:19.567Z,42.74
2024-04-12T09:54:05.856Z,42.90
2024-04-12T09:56:53.264Z,43.48
2024-04-12T09:59:49.716Z,43.36
2024-04-12T10:02:38.492Z,42.92
2024-04-12T10:05:26.801Z,43.29
2024-04-12T10:08:23.435Z,43.43
2024-04-12T10:11:09.941Z,43.65
2024-04-12T10:13:56.356Z,44.12
2024-04-12T10:16:42.986Z,44.96
2024-04-12T10:19:30.621Z,44.15
2024-04-12T10:22:33.240Z,44.07
2024-04-12T10:25:23.717Z,44.20
2024-04-12T10:28:11.078Z,44.36
2024-04-12T10:31:04.172Z,44.46
2024-04-12T10:34:11.135Z,43.98
2024-04-12T10:36:57.850Z,44.00
2024-04-12T10:39:35.081Z,44.38
2024-04-12T10:42:06.421Z,43.90
2024-04-12T10:44:34.248Z,43.92
2024-04-12T10:47:02.145Z,44.12
2024-04-12T10:49:31.228Z,44.58
2024-04-12T10:51:59.063Z,45.00
2024-04-12T10:54:26.890Z,45.14
2024-04-12T10:56:57.967Z,45.10
2024-04-12T10:59:28.252Z,45.21
2024-04-12T11:02:01.265Z,45.32
2024-04-12T11:07:03.486Z,45.23
2024-04-12T11:09:39.228Z,44.92
2024-04-12T11:12:11.789Z,44.52
2024-04-12T11:14:40.087Z,44.92
2024-04-12T11:17:27.068Z,45.17
2024-04-12T11:20:14.839Z,44.72
2024-04-12T11:23:01.736Z,44.32
2024-04-12T11:25:48.416Z,44.20
2024-04-12T11:28:35.045Z,44.00
2024-04-12T11:31:21.017Z,43.10
2024-04-12T11:34:01.032Z,43.03
2024-04-12T11:36:40.760Z,43.69
2024-04-12T11:39:19.920Z,44.11
2024-04-12T11:41:48.780Z,44.07
2024-04-12T11:44:18.710Z,43.90
2024-04-12T11:46:47.512Z,44.01
2024-04-12T11:49:26.116Z,43.74
2024-04-12T11:51:56.388Z,43.66
2024-04-12T11:54:31.163Z,43.22
2024-04-12T11:57:06.675Z,44.21
2024-04-12T11:59:35.792Z,44.65
2024-04-12T12:02:06.057Z,44.14
2024-04-12T12:04:34.074Z,44.29
2024-04-12T12:07:07.552Z,44.26
2024-04-12T12:09:40.212Z,44.20
2024-04-12T12:12:14.562Z,43.69
2024-04-12T12:14:43.391Z,43.25
2024-04-12T12:17:11.579Z,43.23
2024-04-12T12:19:39.374Z,43.18
2024-04-12T12:22:11.126Z,43.08
2024-04-12T12:24:39.993Z,42.87
2024-04-12T12:27:10.054Z,42.56
2024-04-12T12:29:38.549Z,41.91
2024-04-12T12:32:07.219Z,42.26
2024-04-12T12:34:35.815Z,43.04
2024-04-12T12:37:05.569Z,43.62
2024-04-12T12:39:33.428Z,43.95
2024-04-12T12:42:02.540Z,44.08
2024-04-12T12:44:30.829Z,44.14
2024-04-12T12:47:10.084Z,44.30
2024-04-12T12:49:54.259Z,44.49
2024-04-12T12:52:23.316Z,44.17
2024-04-12T12:54:51.134Z,44.22
2024-04-12T12:57:19.315Z,44.43
2024-04-12T12:59:47.948Z,44.59
2024-04-12T13:02:16.823Z,44.33
2024-04-12T13:04:47.502Z,44.26
2024-04-12T13:07:19.667Z,44.07
2024-04-12T13:09:54.828Z,44.38
2024-04-12T13:12:29.613Z,44.68
2024-04-12T13:14:59.113Z,44.34
2024-04-12T13:17:27.384Z,44.42
2024-04-12T13:19:58.264Z,44.05
2024-04-12T13:22:26.450Z,44.09
2024-04-12T13:24:54.513Z,44.17
2024-04-12T13:27:24.840Z,44.15
2024-04-12T13:29:53.051Z,44.10
2024-04-12T13:32:21.231Z,43.99
2024-04-12T13:34:49.412Z,43.69
2024-04-12T13:37:21.983Z,43.63
2024-04-12T13:39:50.166Z,43.90
2024-04-12T13:42:21.461Z,43.55
2024-04-12T13:45:09.025Z,43.64
2024-04-12T13:47:56.056Z,44.13
2024-04-12T13:50:42.543Z,44.10
2024-04-12T13:53:10.606Z,43.80
2024-04-12T13:55:40.268Z,43.04
2024-04-12T13:58:08.500Z,42.56
2024-04-12T14:00:37.604Z,42.52
2024-04-12T14:03:08.952Z,42.46
2024-04-12T14:05:37.397Z,42.79
2024-04-12T14:08:12.828Z,42.98
2024-04-12T14:10:40.706Z,43.28
2024-04-12T14:13:18.104Z,43.07
2024-04-12T14:15:48.405Z,43.06
2024-04-12T14:18:16.423Z,43.16
2024-04-12T14:20:44.919Z,43.55
2024-04-12T14:23:12.746Z,43.36
2024-04-12T14:25:40.576Z,43.05
2024-04-12T14:28:11.919Z,43.29
2024-04-12T14:30:39.768Z,43.45
2024-04-12T14:33:08.656Z,43.74
2024-04-12T14:35:42.691Z,43.95
2024-04-12T14:38:10.821Z,43.99
2024-04-12T14:40:38.723Z,43.97
2024-04-12T14:43:06.924Z,43.93
2024-04-12T14:45:36.149Z,43.69
2024-04-12T14:48:09.580Z,43.79
2024-04-12T14:50:48.722Z,43.83
2024-04-12T14:53:17.274Z,43.98
2024-04-12T14:55:48.027Z,44.15
2024-04-12T14:58:15.868Z,44.22
2024-04-12T15:00:43.782Z,44.43
2024-04-12T15:03:30.469Z,44.51
2024-04-12T15:06:16.844Z,44.75
2024-04-12T15:09:03.556Z,44.94
2024-04-12T15:11:50.185Z,45.06
2024-04-12T15:14:39.642Z,45.23
2024-04-12T15:17:26.265Z,45.38
2024-04-12T15:20:13.084Z,45.42
2024-04-12T15:22:59.559Z,45.50
2024-04-12T15:25:46.210Z,45.66
2024-04-12T15:28:32.929Z,45.78
2024-04-12T15:31:19.878Z,45.83
2024-04-12T15:34:06.415Z,46.08
2024-04-12T15:36:52.839Z,46.23
2024-04-12T15:39:39.270Z,46.36
2024-04-12T15:42:25.919Z,46.44
2024-04-12T15:45:12.876Z,46.49
2024-04-12T15:47:41.079Z,46.56
2024-04-12T15:50:17.560Z,46.70
2024-04-12T15:53:06.939Z,46.72
2024-04-12T15:55:54.944Z,46.98
2024-04-12T15:58:52.174Z,46.95
2024-04-12T16:01:39.071Z,47.19
2024-04-12T16:04:25.618Z,47.18
2024-04-12T16:07:12.221Z,47.18
2024-04-12T16:10:00.504Z,47.47
2024-04-12T16:12:28.935Z,47.38
2024-04-12T16:14:58.201Z,47.60
2024-04-12T16:17:26.682Z,47.50
2024-04-12T16:19:55.703Z,47.68
2024-04-12T16:22:26.215Z,47.94
2024-04-12T16:24:56.128Z,48.22
2024-04-12T16:27:24.878Z,48.16
2024-04-12T16:29:52.987Z,48.17
2024-04-12T16:32:20.968Z,48.27
2024-04-12T16:34:58.448Z,48.26
2024-04-12T16:37:26.274Z,48.89
2024-04-12T16:39:55.433Z,51.18
2024-04-12T16:42:23.222Z,51.43
2024-04-12T16:44:51.145Z,52.09
2024-04-12T16:47:19.517Z,52.53
2024-04-12T16:49:49.017Z,53.10
2024-04-12T16:52:16.898Z,52.93
2024-04-12T16:54:44.880Z,53.23
2024-04-12T16:57:12.836Z,53.94
2024-04-12T16:59:41.145Z,54.42
2024-04-12T17:02:09.293Z,54.37
2024-04-12T17:04:37.374Z,55.16
2024-04-12T17:07:05.261Z,56.38
2024-04-12T17:09:33.245Z,56.10
2024-04-12T17:12:01.100Z,56.41
2024-04-12T17:14:29.304Z,56.64
2024-04-12T17:16:58.448Z,58.37
2024-04-12T17:19:26.363Z,58.63
2024-04-12T17:21:54.517Z,58.80
2024-04-12T17:24:23.392Z,59.62
2024-04-12T17:26:53.309Z,59.21
2024-04-12T17:29:22.559Z,59.97
2024-04-12T17:31:56.071Z,59.17
2024-04-12T17:34:25.090Z,59.25
2024-04-12T17:36:53.353Z,59.16
2024-04-12T17:39:25.032Z,60.49
2024-04-12T17:41:54.415Z,59.83
2024-04-12T17:44:23.572Z,59.92
2024-04-12T17:46:53.120Z,60.48
2024-04-12T17:49:22.372Z,60.76
2024-04-12T17:51:52.600Z,60.89
2024-04-12T17:54:20.688Z,61.23
2024-04-12T17:56:48.478Z,60.72
2024-04-12T17:59:16.602Z,60.35
2024-04-12T18:01:44.602Z,60.32
2024-04-12T18:04:14.706Z,59.95
2024-04-12T18:06:46.095Z,59.72
2024-04-12T18:09:15.588Z,59.63
2024-04-12T18:11:43.316Z,59.65
2024-04-12T18:14:12.636Z,60.68
2024-04-12T18:16:44.616Z,61.09
2024-04-12T18:19:12.387Z,60.51
2024-04-12T18:21:41.024Z,60.86
2024-04-12T18:24:08.861Z,60.86
2024-04-12T18:26:37.768Z,61.10
2024-04-12T18:29:06.487Z,60.94
2024-04-12T18:31:34.917Z,61.08
2024-04-12T18:34:07.646Z,61.39
2024-04-12T18:36:36.846Z,64.50
2024-04-12T18:39:23.685Z,68.65
2024-04-12T18:42:09.957Z,69.46
2024-04-12T18:44:56.557Z,68.91
2024-04-12T18:47:24.429Z,66.46
2024-04-12T18:49:52.301Z,64.40
2024-04-12T18:52:22.274Z,62.58
2024-04-12T18:54:50.094Z,61.12
2024-04-12T18:57:18.061Z,60.04
2024-04-12T18:59:46.075Z,59.59
2024-04-12T19:02:14.447Z,56.80
2024-04-12T19:04:43.032Z,55.67
2024-04-12T19:07:12.425Z,55.44
2024-04-12T19:09:40.770Z,55.04
2024-04-12T19:12:11.249Z,54.82
2024-04-12T19:14:42.493Z,55.00
2024-04-12T19:17:10.292Z,55.15
2024-04-12T19:19:38.163Z,55.49
2024-04-12T19:22:07.684Z,55.66
2024-04-12T19:24:36.488Z,57.26
2024-04-12T19:27:04.543Z,58.73
2024-04-12T19:29:34.819Z,59.11
2024-04-12T19:32:02.802Z,59.51
2024-04-12T19:34:34.754Z,59.61
2024-04-12T19:37:05.495Z,60.08
2024-04-12T19:39:33.312Z,60.26
2024-04-12T19:42:01.360Z,60.89
2024-04-12T19:44:29.907Z,62.03
2024-04-12T19:47:00.583Z,62.13
2024-04-12T19:49:29.884Z,63.98
2024-04-12T19:51:58.287Z,67.08
2024-04-12T19:54:30.421Z,68.63
2024-04-12T19:56:58.748Z,68.42
2024-04-12T19:59:26.529Z,68.20
2024-04-12T20:01:54.347Z,67.71
2024-04-12T20:04:22.656Z,67.78
2024-04-12T20:06:53.464Z,66.65
2024-04-12T20:09:22.505Z,65.28
2024-04-12T20:11:50.502Z,64.49
2024-04-12T20:14:18.882Z,63.12
2024-04-12T20:16:47.035Z,61.31
2024-04-12T20:19:15.233Z,60.66
2024-04-12T20:21:43.353Z,60.03
2024-04-12T20:24:13.297Z,59.05
2024-04-12T20:26:46.855Z,56.44
2024-04-12T20:29:17.604Z,55.61
2024-04-12T20:31:53.845Z,55.31
2024-04-12T20:34:41.447Z,56.28
2024-04-12T20:37:09.310Z,58.09
2024-04-12T20:39:39.293Z,58.39
2024-04-12T20:42:07.293Z,59.62
2024-04-12T20:44:35.226Z,60.35
2024-04-12T20:47:04.904Z,60.81
2024-04-12T20:49:33.721Z,61.32
2024-04-12T20:52:08.113Z,61.56
2024-04-12T20:54:39.143Z,62.94
2024-04-12T20:57:07.969Z,65.36
2024-04-12T20:59:35.787Z,66.96
2024-04-12T21:02:03.996Z,67.31
2024-04-12T21:04:31.908Z,67.14
2024-04-12T21:06:59.683Z,66.25
2024-04-12T21:09:27.790Z,65.74
2024-04-12T21:11:56.907Z,64.71
2024-04-12T21:14:24.791Z,64.04
2024-04-12T21:16:52.516Z,63.58
2024-04-12T21:19:20.812Z,62.53
2024-04-12T21:21:48.591Z,61.88
2024-04-12T21:24:16.690Z,61.55
2024-04-12T21:26:44.817Z,61.09
2024-04-12T21:29:12.559Z,60.13
2024-04-12T21:31:40.468Z,59.67
2024-04-12T21:34:08.276Z,58.10
2024-04-12T21:36:36.170Z,55.81
2024-04-12T21:39:06.049Z,54.71
2024-04-12T21:41:34.297Z,55.42
2024-04-12T21:44:02.029Z,55.69
2024-04-12T21:46:30.167Z,55.45
2024-04-12T21:48:58.186Z,56.82
2024-04-12T21:51:29.025Z,59.25
2024-04-12T21:53:58.094Z,60.18
2024-04-12T21:56:25.846Z,61.71
2024-04-12T21:58:53.610Z,63.04
2024-04-12T22:01:21.625Z,65.22
2024-04-12T22:03:49.669Z,66.67
2024-04-12T22:06:17.671Z,66.51
2024-04-12T22:08:45.896Z,66.56
2024-04-12T22:11:15.037Z,66.19
2024-04-12T22:13:42.959Z,65.14
2024-04-12T22:16:11.196Z,64.54
2024-04-12T22:18:40.229Z,63.58
2024-04-12T22:21:09.206Z,62.13
2024-04-12T22:23:43.044Z,61.49
2024-04-12T22:26:18.473Z,60.42
2024-04-12T22:28:47.095Z,60.17
2024-04-12T22:31:17.332Z,58.00
2024-04-12T22:33:50.332Z,55.72
2024-04-12T22:36:21.115Z,55.15
2024-04-12T22:38:49.195Z,55.64
2024-04-12T22:41:17.465Z,56.46
2024-04-12T22:43:45.918Z,58.00
2024-04-12T22:46:15.079Z,59.83
2024-04-12T22:48:44.833Z,60.60
2024-04-12T22:51:26.610Z,61.57
2024-04-12T22:53:54.875Z,64.51
2024-04-12T22:56:26.606Z,65.89
2024-04-12T22:59:00.263Z,66.17
2024-04-12T23:01:28.936Z,65.96
2024-04-12T23:03:58.560Z,65.25
2024-04-12T23:06:26.975Z,64.16
2024-04-12T23:08:54.891Z,64.06
2024-04-12T23:11:22.800Z,62.52
2024-04-12T23:13:50.656Z,61.63
2024-04-12T23:16:18.494Z,61.61
2024-04-12T23:18:46.564Z,60.83
2024-04-12T23:21:14.350Z,60.36
2024-04-12T23:23:42.237Z,60.24
2024-04-12T23:26:09.909Z,59.72
2024-04-12T23:28:37.750Z,57.12
2024-04-12T23:31:05.580Z,54.98
2024-04-12T23:33:35.304Z,54.68
2024-04-12T23:36:03.986Z,55.80
2024-04-12T23:38:31.806Z,57.82
2024-04-12T23:40:59.575Z,56.21
2024-04-12T23:43:27.299Z,58.76
2024-04-12T23:45:55.046Z,61.24
2024-04-12T23:48:25.269Z,61.90
2024-04-12T23:50:53.116Z,62.17
2024-04-12T23:53:20.976Z,64.48
2024-04-12T23:55:48.702Z,66.07
2024-04-12T23:58:16.425Z,66.24
